Wetterdaten: Woche 14.10.02 - 20.10.02 (KW42)
Datum Zeit Temperatur Luftfeuchte Luftdruck Regenmenge Wind Richtung Taupunkt Windchill
14.10.2002 00:00 7.7 C 94 % 1011.8 hPa 0.9 l/m 2.3 km/h (1 Bft) O-SO 6.8 C 7.5 C
14.10.2002 01:00 7.9 C 97 % 1012.8 hPa 0.6 l/m 2.3 km/h (1 Bft) O-SO 7.5 C 7.6 C
14.10.2002 02:00 8.1 C 98 % 1012.5 hPa 0.9 l/m 4.2 km/h (1 Bft) O-SO 7.8 C 7.6 C
14.10.2002 03:00 8.4 C 99 % 1012.0 hPa 0.0 l/m 1.6 km/h (1 Bft) O-SO 8.3 C 8.3 C
14.10.2002 04:00 8.7 C 99 % 1011.8 hPa 0.0 l/m 0.6 km/h (0 Bft) O 8.5 C 8.6 C
14.10.2002 05:00 8.8 C 99 % 1011.8 hPa 0.0 l/m 0.0 km/h (0 Bft) O-SO 8.6 C 8.8 C
14.10.2002 06:00 9.0 C 99 % 1011.8 hPa 0.0 l/m 4.6 km/h (1 Bft) O-SO 8.8 C 8.5 C
14.10.2002 07:00 8.8 C 98 % 1012.1 hPa 0.0 l/m 0.5 km/h (0 Bft) O-SO 8.5 C 8.7 C
14.10.2002 08:00 9.1 C 99 % 1012.5 hPa 0.0 l/m 0.5 km/h (0 Bft) O-SO 9.0 C 9.1 C
14.10.2002 09:00 9.4 C 99 % 1012.8 hPa 0.6 l/m 0.9 km/h (0 Bft) O-SO 9.2 C 9.3 C
14.10.2002 10:00 10.4 C 99 % 1012.8 hPa 0.3 l/m 3.9 km/h (1 Bft) O-SO 10.3 C 10.4 C
14.10.2002 11:00 10.8 C 98 % 1012.8 hPa 0.3 l/m 1.8 km/h (1 Bft) O-SO 10.4 C 10.8 C
14.10.2002 12:00 11.0 C 97 % 1012.8 hPa 0.3 l/m 1.3 km/h (1 Bft) O-SO 10.6 C 11.0 C
14.10.2002 13:00 11.4 C 97 % 1012.3 hPa 0.0 l/m 1.9 km/h (1 Bft) O-SO 11.0 C 11.4 C
14.10.2002 14:00 11.5 C 96 % 1012.4 hPa 0.0 l/m 7.1 km/h (2 Bft) W-NW 10.9 C 11.5 C
14.10.2002 15:00 11.3 C 88 % 1012.7 hPa 0.0 l/m 10.2 km/h (2 Bft) NW 9.3 C 11.3 C
14.10.2002 16:00 11.2 C 89 % 1012.8 hPa 0.3 l/m 1.8 km/h (1 Bft) NW 9.5 C 11.2 C
14.10.2002 17:00 10.9 C 93 % 1012.8 hPa 0.9 l/m 1.3 km/h (1 Bft) W-NW 9.9 C 10.9 C
14.10.2002 18:00 10.5 C 93 % 1012.8 hPa 0.6 l/m 2.7 km/h (1 Bft) W 9.3 C 10.5 C
14.10.2002 19:00 10.0 C 95 % 1013.6 hPa 1.2 l/m 0.6 km/h (0 Bft) O-SO 9.3 C 10.0 C
14.10.2002 20:00 9.6 C 98 % 1013.9 hPa 1.2 l/m 1.5 km/h (1 Bft) O-SO 9.3 C 9.6 C
14.10.2002 21:00 9.5 C 97 % 1013.9 hPa 0.9 l/m 0.5 km/h (0 Bft) W-NW 9.0 C 9.5 C
14.10.2002 22:00 9.2 C 96 % 1013.9 hPa 0.0 l/m 0.0 km/h (0 Bft) N 8.6 C 9.2 C
14.10.2002 23:00 9.1 C 93 % 1014.0 hPa 2.4 l/m 0.4 km/h (0 Bft) NO 8.1 C 9.1 C
15.10.2002 00:00 8.9 C 97 % 1014.2 hPa 0.9 l/m 0.6 km/h (0 Bft) O-SO 8.4 C 8.8 C
15.10.2002 01:00 8.8 C 99 % 1014.4 hPa 0.3 l/m 0.4 km/h (0 Bft) O 8.7 C 8.8 C
15.10.2002 02:00 8.8 C 100 % 1014.8 hPa 0.6 l/m 0.1 km/h (0 Bft) O 8.8 C 8.8 C
15.10.2002 03:00 8.8 C 100 % 1014.5 hPa 1.2 l/m 0.2 km/h (0 Bft) O-SO 8.8 C 8.8 C
15.10.2002 04:00 8.8 C 100 % 1013.9 hPa 0.6 l/m 0.0 km/h (0 Bft) N 8.8 C 8.8 C
15.10.2002 05:00 8.8 C 100 % 1013.9 hPa 0.0 l/m 0.0 km/h (0 Bft) N 8.8 C 8.8 C
15.10.2002 06:00 8.8 C 100 % 1013.9 hPa 0.0 l/m 0.0 km/h (0 Bft) N 8.8 C 8.8 C
15.10.2002 07:00 8.7 C 100 % 1013.6 hPa 0.0 l/m 1.7 km/h (1 Bft) O-SO 8.7 C 8.5 C
15.10.2002 08:00 9.1 C 100 % 1013.9 hPa 0.0 l/m 0.0 km/h (0 Bft) N 9.1 C 9.1 C
15.10.2002 09:00 9.6 C 100 % 1012.9 hPa 0.0 l/m 0.0 km/h (0 Bft) N 9.6 C 9.6 C
15.10.2002 10:00 10.3 C 99 % 1012.8 hPa 0.0 l/m 1.2 km/h (1 Bft) O-SO 10.2 C 10.3 C
15.10.2002 11:00 11.0 C 95 % 1012.8 hPa 0.0 l/m 0.0 km/h (0 Bft) N 10.2 C 11.0 C
15.10.2002 12:00 11.9 C 91 % 1012.8 hPa 0.0 l/m 0.1 km/h (0 Bft) N 10.5 C 11.9 C
15.10.2002 13:00 12.9 C 87 % 1012.8 hPa 0.0 l/m 0.2 km/h (0 Bft) W-NW 10.7 C 12.9 C
15.10.2002 14:00 12.9 C 88 % 1012.2 hPa 0.0 l/m 0.5 km/h (0 Bft) W-NW 11.1 C 12.9 C
15.10.2002 15:00 13.0 C 88 % 1012.2 hPa 0.0 l/m 0.3 km/h (0 Bft) W-NW 11.1 C 13.0 C
15.10.2002 16:00 13.3 C 90 % 1012.4 hPa 0.0 l/m 0.0 km/h (0 Bft) N 11.7 C 13.3 C
15.10.2002 17:00 13.1 C 94 % 1011.8 hPa 0.0 l/m 0.0 km/h (0 Bft) N 12.1 C 13.1 C
15.10.2002 18:00 12.5 C 97 % 1011.8 hPa 0.0 l/m 0.1 km/h (0 Bft) N 12.1 C 12.5 C
15.10.2002 19:00 12.2 C 99 % 1011.8 hPa 0.3 l/m 0.0 km/h (0 Bft) N 12.1 C 12.2 C
15.10.2002 20:00 12.1 C 100 % 1012.1 hPa 1.5 l/m 1.8 km/h (1 Bft) O-SO 12.1 C 12.1 C
15.10.2002 21:00 12.1 C 100 % 1012.1 hPa 2.7 l/m 2.9 km/h (1 Bft) O-SO 12.1 C 12.1 C
15.10.2002 22:00 12.1 C 100 % 1011.8 hPa 1.8 l/m 0.0 km/h (0 Bft) N 12.1 C 12.1 C
15.10.2002 23:00 12.0 C 100 % 1011.8 hPa 2.1 l/m 0.0 km/h (0 Bft) N 12.0 C 12.0 C
16.10.2002 00:00 12.2 C 100 % 1011.6 hPa 5.1 l/m 0.0 km/h (0 Bft) N 12.2 C 12.2 C
16.10.2002 01:00 12.3 C 100 % 1010.8 hPa 4.8 l/m 3.2 km/h (1 Bft) O-SO 12.3 C 12.3 C
16.10.2002 02:00 12.5 C 100 % 1010.8 hPa 4.8 l/m 3.1 km/h (1 Bft) O-SO 12.5 C 12.5 C
16.10.2002 03:00 12.7 C 100 % 1009.8 hPa 0.0 l/m 2.0 km/h (1 Bft) O-SO 12.7 C 12.7 C
16.10.2002 04:00 12.7 C 100 % 1009.5 hPa 0.0 l/m 0.7 km/h (0 Bft) O-SO 12.7 C 12.7 C
16.10.2002 05:00 12.3 C 100 % 1008.7 hPa 0.0 l/m 0.4 km/h (0 Bft) O-SO 12.3 C 12.3 C
16.10.2002 06:00 12.2 C 100 % 1008.2 hPa 0.0 l/m 0.0 km/h (0 Bft) N 12.2 C 12.2 C
16.10.2002 07:00 12.2 C 100 % 1007.7 hPa 0.0 l/m 1.1 km/h (1 Bft) O-SO 12.2 C 12.2 C
16.10.2002 08:00 12.3 C 100 % 1007.7 hPa 0.0 l/m 2.0 km/h (1 Bft) O-SO 12.3 C 12.3 C
16.10.2002 09:00 12.5 C 100 % 1007.7 hPa 0.0 l/m 4.2 km/h (1 Bft) O-SO 12.5 C 12.5 C
16.10.2002 10:00 12.8 C 100 % 1007.7 hPa 0.0 l/m 0.6 km/h (0 Bft) O-SO 12.8 C 12.8 C
16.10.2002 11:00 13.1 C 100 % 1007.1 hPa 0.0 l/m 0.0 km/h (0 Bft) N 13.1 C 13.1 C
16.10.2002 12:00 14.0 C 100 % 1006.6 hPa 0.0 l/m 2.5 km/h (1 Bft) O-SO 14.0 C 14.0 C
16.10.2002 13:00 14.8 C 99 % 1005.5 hPa 0.0 l/m 0.1 km/h (0 Bft) N 14.7 C 14.8 C
16.10.2002 14:00 16.6 C 83 % 1004.2 hPa 0.0 l/m 9.0 km/h (2 Bft) O-SO 13.5 C 16.6 C
16.10.2002 15:00 19.0 C 64 % 1003.5 hPa 0.0 l/m 15.8 km/h (3 Bft) S-SO 12.1 C 19.0 C
16.10.2002 16:00 20.8 C 56 % 1003.5 hPa 0.0 l/m 9.6 km/h (2 Bft) O-SO 11.6 C 20.8 C
16.10.2002 17:00 19.2 C 60 % 1002.6 hPa 0.0 l/m 7.7 km/h (2 Bft) SO 11.3 C 19.2 C
16.10.2002 18:00 18.0 C 65 % 1002.5 hPa 0.0 l/m 9.2 km/h (2 Bft) SO 11.3 C 18.0 C
16.10.2002 19:00 16.9 C 70 % 1003.9 hPa 0.0 l/m 35.7 km/h (5 Bft) NW 11.4 C 16.9 C
16.10.2002 20:00 15.3 C 84 % 1004.5 hPa 0.3 l/m 36.6 km/h (5 Bft) NW 12.5 C 15.3 C
16.10.2002 21:00 14.2 C 90 % 1004.5 hPa 0.3 l/m 32.1 km/h (5 Bft) NW 12.5 C 14.2 C
16.10.2002 22:00 13.6 C 92 % 1005.4 hPa 0.3 l/m 17.4 km/h (3 Bft) NW 12.3 C 13.6 C
16.10.2002 23:00 12.9 C 91 % 1005.6 hPa 0.3 l/m 17.4 km/h (3 Bft) NW 11.6 C 12.9 C
17.10.2002 00:00 12.1 C 92 % 1005.6 hPa 1.5 l/m 8.2 km/h (2 Bft) NW 10.8 C 12.1 C
17.10.2002 01:00 11.6 C 93 % 1005.6 hPa 1.5 l/m 6.6 km/h (2 Bft) NW 10.5 C 11.6 C
17.10.2002 02:00 11.2 C 95 % 1006.1 hPa 3.0 l/m 0.4 km/h (0 Bft) S-SW 10.4 C 11.2 C
17.10.2002 03:00 10.7 C 98 % 1006.0 hPa 4.2 l/m 0.8 km/h (0 Bft) O-SO 10.4 C 10.7 C
17.10.2002 04:00 10.7 C 99 % 1005.3 hPa 1.8 l/m 2.1 km/h (1 Bft) SO 10.5 C 10.7 C
17.10.2002 05:00 10.8 C 99 % 1004.1 hPa 0.9 l/m 0.4 km/h (0 Bft) SO 10.7 C 10.8 C
17.10.2002 06:00 10.9 C 100 % 1003.7 hPa 1.5 l/m 0.0 km/h (0 Bft) SO 10.8 C 10.9 C
17.10.2002 07:00 10.7 C 100 % 1002.6 hPa 0.9 l/m 0.6 km/h (0 Bft) SO 10.6 C 10.7 C
17.10.2002 08:00 10.7 C 100 % 1002.5 hPa 1.2 l/m 1.2 km/h (1 Bft) O-SO 10.7 C 10.7 C
17.10.2002 09:00 10.9 C 100 % 1002.5 hPa 0.9 l/m 5.1 km/h (1 Bft) O-SO 10.9 C 10.9 C
17.10.2002 10:00 11.0 C 100 % 1002.5 hPa 2.7 l/m 0.1 km/h (0 Bft) N 11.0 C 11.0 C
17.10.2002 11:00 10.7 C 99 % 1002.9 hPa 2.7 l/m 11.6 km/h (2 Bft) NW 10.6 C 10.7 C
17.10.2002 12:00 10.4 C 94 % 1003.5 hPa 1.5 l/m 14.5 km/h (3 Bft) NW 9.5 C 10.4 C
17.10.2002 13:00 10.4 C 93 % 1003.5 hPa 0.6 l/m 7.3 km/h (2 Bft) NW 9.3 C 10.4 C
17.10.2002 14:00 10.8 C 93 % 1003.2 hPa 0.0 l/m 1.1 km/h (0 Bft) NW 9.7 C 10.8 C
17.10.2002 15:00 11.0 C 86 % 1003.4 hPa 0.0 l/m 8.5 km/h (2 Bft) NW 8.7 C 11.0 C
17.10.2002 16:00 10.8 C 77 % 1003.5 hPa 0.0 l/m 9.6 km/h (2 Bft) NW 6.9 C 10.8 C
17.10.2002 17:00 10.4 C 74 % 1003.5 hPa 0.0 l/m 8.2 km/h (2 Bft) W-NW 6.0 C 10.3 C
17.10.2002 18:00 9.5 C 84 % 1004.3 hPa 0.0 l/m 0.9 km/h (0 Bft) SO 7.0 C 9.4 C
17.10.2002 19:00 9.2 C 88 % 1004.5 hPa 0.0 l/m 0.3 km/h (0 Bft) N 7.4 C 9.2 C
17.10.2002 20:00 8.7 C 91 % 1004.7 hPa 0.0 l/m 0.8 km/h (0 Bft) SO 7.3 C 8.7 C
17.10.2002 21:00 8.6 C 90 % 1005.0 hPa 0.0 l/m 4.0 km/h (1 Bft) SO 7.0 C 8.1 C
17.10.2002 22:00 8.7 C 90 % 1005.9 hPa 1.5 l/m 7.2 km/h (2 Bft) SO 7.0 C 7.6 C
17.10.2002 23:00 7.5 C 91 % 1006.6 hPa 1.5 l/m 13.8 km/h (3 Bft) W-NW 6.2 C 5.7 C
18.10.2002 00:00 7.2 C 95 % 1006.6 hPa 0.0 l/m 0.9 km/h (0 Bft) W-NW 6.4 C 7.2 C
18.10.2002 01:00 7.4 C 96 % 1007.2 hPa 0.0 l/m 2.5 km/h (1 Bft) W-NW 6.8 C 7.1 C
18.10.2002 02:00 7.1 C 95 % 1007.7 hPa 0.3 l/m 3.8 km/h (1 Bft) NW 6.4 C 6.6 C
18.10.2002 03:00 6.9 C 91 % 1008.7 hPa 0.6 l/m 13.7 km/h (3 Bft) W-NW 5.6 C 4.7 C
18.10.2002 04:00 6.7 C 88 % 1008.9 hPa 0.6 l/m 17.1 km/h (3 Bft) NW 4.9 C 4.1 C
18.10.2002 05:00 5.4 C 89 % 1010.4 hPa 1.8 l/m 33.6 km/h (5 Bft) NW 3.6 C 0.4 C
18.10.2002 06:00 5.2 C 91 % 1011.6 hPa 0.6 l/m 16.3 km/h (3 Bft) NW 3.9 C 2.3 C
18.10.2002 07:00 5.0 C 94 % 1011.8 hPa 2.1 l/m 17.9 km/h (3 Bft) NW 4.0 C 1.7 C
18.10.2002 08:00 4.9 C 94 % 1012.1 hPa 0.0 l/m 1.9 km/h (1 Bft) NW 4.1 C 4.6 C
18.10.2002 09:00 5.6 C 96 % 1012.8 hPa 0.0 l/m 0.1 km/h (0 Bft) W-NW 5.0 C 5.6 C
18.10.2002 10:00 6.5 C 91 % 1012.9 hPa 0.0 l/m 1.1 km/h (1 Bft) W 5.1 C 6.4 C
18.10.2002 11:00 7.7 C 84 % 1012.8 hPa 0.0 l/m 0.9 km/h (0 Bft) SO 5.2 C 7.6 C
18.10.2002 12:00 9.2 C 76 % 1012.8 hPa 0.0 l/m 1.8 km/h (1 Bft) SO 5.1 C 9.1 C
18.10.2002 13:00 9.6 C 71 % 1011.8 hPa 0.0 l/m 0.6 km/h (0 Bft) W-NW 4.7 C 9.6 C
18.10.2002 14:00 9.2 C 72 % 1011.8 hPa 0.3 l/m 2.2 km/h (1 Bft) SO 4.5 C 8.9 C
18.10.2002 15:00 7.3 C 83 % 1012.2 hPa 1.2 l/m 5.1 km/h (1 Bft) SO 4.5 C 6.5 C
18.10.2002 16:00 6.2 C 93 % 1012.7 hPa 0.9 l/m 3.5 km/h (1 Bft) SO 5.1 C 5.7 C
18.10.2002 17:00 6.6 C 95 % 1011.8 hPa 0.3 l/m 5.8 km/h (2 Bft) SO 5.8 C 5.7 C
18.10.2002 18:00 6.6 C 96 % 1011.8 hPa 0.0 l/m 4.7 km/h (1 Bft) SO 6.0 C 5.8 C
18.10.2002 19:00 6.9 C 95 % 1012.1 hPa 0.6 l/m 7.7 km/h (2 Bft) SO 6.1 C 5.6 C
18.10.2002 20:00 6.9 C 95 % 1012.8 hPa 0.3 l/m 4.0 km/h (1 Bft) SO 6.2 C 6.3 C
18.10.2002 21:00 6.9 C 94 % 1012.9 hPa 0.0 l/m 3.7 km/h (1 Bft) W-NW 6.0 C 6.4 C
18.10.2002 22:00 6.9 C 93 % 1013.9 hPa 0.0 l/m 4.1 km/h (1 Bft) O-SO 5.8 C 6.2 C
18.10.2002 23:00 7.0 C 93 % 1013.9 hPa 0.0 l/m 2.8 km/h (1 Bft) O-SO 5.9 C 6.7 C
19.10.2002 00:00 6.8 C 94 % 1013.7 hPa 0.3 l/m 4.3 km/h (1 Bft) SO 5.8 C 6.2 C
19.10.2002 01:00 6.7 C 94 % 1012.8 hPa 0.3 l/m 5.9 km/h (2 Bft) SO 5.9 C 5.8 C
19.10.2002 02:00 6.5 C 90 % 1013.7 hPa 0.9 l/m 15.1 km/h (3 Bft) NW 5.0 C 4.3 C
19.10.2002 03:00 6.1 C 96 % 1013.9 hPa 1.8 l/m 10.1 km/h (2 Bft) NW 5.4 C 4.3 C
19.10.2002 04:00 5.9 C 93 % 1013.9 hPa 1.5 l/m 20.4 km/h (4 Bft) NW 4.8 C 2.3 C
19.10.2002 05:00 6.1 C 93 % 1014.8 hPa 0.3 l/m 8.2 km/h (2 Bft) NW 5.1 C 4.8 C
19.10.2002 06:00 6.3 C 92 % 1015.3 hPa 0.0 l/m 16.9 km/h (3 Bft) NW 5.1 C 3.6 C
19.10.2002 07:00 6.4 C 89 % 1016.0 hPa 0.0 l/m 16.4 km/h (3 Bft) NW 4.6 C 3.5 C
19.10.2002 08:00 6.3 C 87 % 1017.2 hPa 0.0 l/m 10.3 km/h (2 Bft) NW 4.2 C 4.4 C
19.10.2002 09:00 5.9 C 83 % 1018.4 hPa 1.2 l/m 15.6 km/h (3 Bft) NW 3.2 C 3.3 C
19.10.2002 10:00 4.8 C 90 % 1019.6 hPa 0.6 l/m 10.2 km/h (2 Bft) NW 3.3 C 2.7 C
19.10.2002 11:00 5.6 C 91 % 1020.1 hPa 0.0 l/m 2.1 km/h (1 Bft) W-NW 4.2 C 5.3 C
19.10.2002 12:00 6.7 C 85 % 1020.1 hPa 0.0 l/m 6.5 km/h (2 Bft) W-NW 4.4 C 5.7 C
19.10.2002 13:00 7.2 C 79 % 1020.6 hPa 0.0 l/m 14.6 km/h (3 Bft) NW 3.8 C 4.8 C
19.10.2002 14:00 8.5 C 68 % 1020.2 hPa 0.0 l/m 16.4 km/h (3 Bft) NW 3.0 C 6.2 C
19.10.2002 15:00 9.3 C 61 % 1020.1 hPa 0.0 l/m 15.7 km/h (3 Bft) NW 2.2 C 7.0 C
19.10.2002 16:00 9.5 C 64 % 1020.1 hPa 0.0 l/m 15.1 km/h (3 Bft) NW 3.0 C 7.4 C
19.10.2002 17:00 8.7 C 73 % 1020.1 hPa 0.0 l/m 5.8 km/h (2 Bft) NW 4.2 C 7.9 C
19.10.2002 18:00 6.6 C 83 % 1020.1 hPa 0.0 l/m 1.1 km/h (1 Bft) O 4.0 C 6.5 C
19.10.2002 19:00 4.9 C 91 % 1020.9 hPa 0.0 l/m 2.8 km/h (1 Bft) O 3.6 C 4.5 C
19.10.2002 20:00 3.9 C 95 % 1021.1 hPa 0.0 l/m 1.4 km/h (1 Bft) O 3.1 C 3.7 C
19.10.2002 21:00 3.1 C 96 % 1021.1 hPa 0.0 l/m 0.4 km/h (0 Bft) O 2.4 C 3.0 C
19.10.2002 22:00 2.5 C 97 % 1021.1 hPa 0.0 l/m 0.0 km/h (0 Bft) N 2.0 C 2.5 C
19.10.2002 23:00 3.0 C 98 % 1021.1 hPa 0.0 l/m 0.0 km/h (0 Bft) N 2.7 C 3.0 C
20.10.2002 00:00 3.1 C 100 % 1020.7 hPa 0.0 l/m 0.6 km/h (0 Bft) O 3.1 C 3.0 C
20.10.2002 01:00 2.7 C 100 % 1020.1 hPa 0.0 l/m 0.0 km/h (0 Bft) N 2.7 C 2.7 C
20.10.2002 02:00 2.5 C 100 % 1020.1 hPa 0.0 l/m 0.3 km/h (0 Bft) W-NW 2.5 C 2.5 C
20.10.2002 03:00 2.2 C 100 % 1020.1 hPa 0.0 l/m 0.3 km/h (0 Bft) W-NW 2.2 C 2.2 C
20.10.2002 04:00 2.1 C 100 % 1020.1 hPa 0.0 l/m 0.3 km/h (0 Bft) W-NW 2.1 C 2.1 C
20.10.2002 05:00 2.2 C 100 % 1020.1 hPa 0.0 l/m 0.0 km/h (0 Bft) N 2.2 C 2.2 C
20.10.2002 06:00 2.4 C 100 % 1020.1 hPa 0.0 l/m 0.0 km/h (0 Bft) N 2.4 C 2.4 C
20.10.2002 07:00 2.6 C 100 % 1019.3 hPa 0.0 l/m 0.0 km/h (0 Bft) N 2.6 C 2.6 C
20.10.2002 08:00 2.8 C 100 % 1019.7 hPa 0.0 l/m 0.1 km/h (0 Bft) NW 2.8 C 2.8 C
20.10.2002 09:00 3.3 C 100 % 1019.4 hPa 0.0 l/m 0.0 km/h (0 Bft) N 3.3 C 3.3 C
20.10.2002 10:00 4.3 C 95 % 1019.0 hPa 0.0 l/m 0.4 km/h (0 Bft) W-NW 3.5 C 4.3 C
20.10.2002 11:00 5.2 C 91 % 1019.0 hPa 0.0 l/m 1.7 km/h (1 Bft) O-SO 3.8 C 5.0 C
20.10.2002 12:00 6.4 C 84 % 1018.9 hPa 0.0 l/m 2.3 km/h (1 Bft) O-SO 3.9 C 6.2 C
20.10.2002 13:00 7.4 C 80 % 1018.0 hPa 0.0 l/m 0.1 km/h (0 Bft) O-SO 4.1 C 7.4 C
20.10.2002 14:00 8.5 C 74 % 1017.6 hPa 0.0 l/m 4.5 km/h (1 Bft) O-SO 4.1 C 7.9 C
20.10.2002 15:00 9.6 C 70 % 1017.0 hPa 0.0 l/m 0.8 km/h (0 Bft) O-NO 4.3 C 9.5 C
20.10.2002 16:00 9.6 C 71 % 1016.5 hPa 0.0 l/m 3.0 km/h (1 Bft) O 4.7 C 9.3 C
20.10.2002 17:00 9.2 C 73 % 1015.2 hPa 0.0 l/m 2.1 km/h (1 Bft) O-SO 4.6 C 9.0 C
20.10.2002 18:00 7.2 C 80 % 1014.9 hPa 0.0 l/m 2.2 km/h (1 Bft) O-SO 3.9 C 7.0 C
20.10.2002 19:00 5.7 C 88 % 1014.8 hPa 0.0 l/m 2.0 km/h (1 Bft) O-SO 3.9 C 5.5 C
20.10.2002 20:00 4.8 C 93 % 1013.9 hPa 0.0 l/m 0.0 km/h (0 Bft) N 3.8 C 4.8 C
20.10.2002 21:00 4.0 C 95 % 1013.9 hPa 0.0 l/m 0.0 km/h (0 Bft) N 3.3 C 4.0 C
20.10.2002 22:00 3.6 C 97 % 1013.1 hPa 0.0 l/m 0.0 km/h (0 Bft) N 3.1 C 3.6 C
20.10.2002 23:00 3.3 C 97 % 1012.8 hPa 0.0 l/m 0.0 km/h (0 Bft) N 2.9 C 3.3 C
Min-Datum _ 20.10.02 16.10.02 16.10.02 - 14.10.02 - 19.10.02 18.10.02
_ Min-Zeit 03:37 16:48 17:09 - 00:10 - 16:15 05:29
Minimum _ 2.0 C 52 % 1002.5 hPa - 0.0 km/h (0 Bft) - 1.3 C -0.7 C
Max-Datum _ 16.10.02 14.10.02 19.10.02 16.10.02 16.10.02 - 16.10.02 16.10.02
_ Max-Zeit 16:39 09:55 20:00 00:21 21:03 - 14:12 16:39
Maximum _ 21.3 C 100 % 1021.1 hPa 5.1 l/m 55.2 km/h
NW (7 Bft)
- 15.0 C 21.3 C
Durchschnitt _ 9.0 C 92 % 1012.0 hPa #83.7 l/m 4.6 km/h (1 Bft) NW 7.7 C 8.6 C

Durchschnitt Minimum Temp.8.6 C
Durchschnitt Maximum Temp.9.4 C
© Kaiko 2002